Time;durP1;ratioP1;P1;durP2;ratioP2;P2;SDS_P1;SDS_P2;PMS_P1;PMS_P2;Temp;Humidity;BMP_temperature;BMP_pressure;BME280_temperature;BME280_humidity;BME280_pressure;Samples;Min_cycle;Max_cycle;Signal;HPM_P1;HPM_P2
2024/02/02 00:00:48;;;;;;;68.88;64.25;;;4.60;99.90;;;;;;12604929;28;20052;-81
2024/02/02 00:06:50;;;;;;;63.47;59.33;;;4.60;99.90;;;;;;12586656;28;20062;-80
2024/02/02 00:12:53;;;;;;;62.20;58.05;;;4.60;99.90;;;;;;12595396;28;20190;-82
2024/02/02 00:18:55;;;;;;;66.72;62.47;;;4.60;99.90;;;;;;12608258;28;20519;-81
2024/02/02 00:24:57;;;;;;;70.18;65.00;;;4.50;99.90;;;;;;12618536;28;20071;-81
2024/02/02 00:30:59;;;;;;;68.30;64.10;;;4.40;99.90;;;;;;12626373;28;20064;-81
2024/02/02 00:37:01;;;;;;;69.53;64.60;;;4.40;99.90;;;;;;12606275;28;20810;-79
2024/02/02 00:43:03;;;;;;;70.40;64.90;;;4.30;99.90;;;;;;12603996;28;20055;-80
2024/02/02 00:49:05;;;;;;;70.75;66.30;;;4.40;99.90;;;;;;12627381;28;20071;-79
2024/02/02 00:55:07;;;;;;;74.25;69.60;;;4.40;99.90;;;;;;12601071;28;20539;-79
2024/02/02 01:01:09;;;;;;;69.45;63.97;;;4.40;99.90;;;;;;12601885;28;20080;-79
2024/02/02 01:07:18;;;;;;;76.55;71.82;;;4.40;99.90;;;;;;12630691;28;20056;-80
2024/02/02 01:13:20;;;;;;;69.65;64.90;;;4.50;99.90;;;;;;12588740;28;20089;-79
2024/02/02 01:19:22;;;;;;;66.93;61.83;;;4.40;99.90;;;;;;12625768;28;20060;-79
2024/02/02 01:25:24;;;;;;;66.35;61.72;;;4.40;99.90;;;;;;12610947;28;20048;-78
2024/02/02 01:31:26;;;;;;;66.32;61.85;;;4.40;99.90;;;;;;12596910;28;20484;-79
2024/02/02 01:37:28;;;;;;;68.20;63.35;;;4.40;99.90;;;;;;12589696;28;20064;-79
2024/02/02 01:43:30;;;;;;;66.35;62.17;;;4.40;99.90;;;;;;12612116;28;20059;-79
2024/02/02 01:49:34;;;;;;;71.05;66.05;;;4.40;99.90;;;;;;12613035;28;20424;-80
2024/02/02 01:55:36;;;;;;;73.93;68.40;;;4.40;99.90;;;;;;12601058;28;20055;-78
2024/02/02 02:01:40;;;;;;;75.30;70.13;;;4.40;99.90;;;;;;12612000;28;20056;-78
2024/02/02 02:07:44;;;;;;;79.25;73.65;;;4.40;99.90;;;;;;12615486;28;20075;-82
2024/02/02 02:13:46;;;;;;;78.70;73.15;;;4.40;99.90;;;;;;12584332;28;20052;-80
2024/02/02 02:19:48;;;;;;;76.28;71.55;;;4.50;99.90;;;;;;12592188;28;20048;-81
2024/02/02 02:25:50;;;;;;;73.63;68.03;;;4.40;99.90;;;;;;12603060;28;20071;-82
2024/02/02 02:31:55;;;;;;;72.30;67.28;;;4.40;99.90;;;;;;12606296;28;20047;-81
2024/02/02 02:37:57;;;;;;;73.72;68.43;;;4.40;99.90;;;;;;12635544;28;20556;-82
2024/02/02 02:43:59;;;;;;;75.88;70.78;;;4.40;99.90;;;;;;12607060;28;20067;-81
2024/02/02 02:50:01;;;;;;;75.55;70.43;;;4.40;99.90;;;;;;12610389;28;20080;-81
2024/02/02 02:56:04;;;;;;;69.78;65.28;;;4.50;99.90;;;;;;12605369;28;20056;-81
2024/02/02 03:02:06;;;;;;;71.78;66.95;;;4.50;99.90;;;;;;12608650;28;20061;-82
2024/02/02 03:08:08;;;;;;;73.25;68.28;;;4.50;99.90;;;;;;12613621;28;20130;-82
2024/02/02 03:14:10;;;;;;;72.22;67.22;;;4.50;99.90;;;;;;12600321;28;20057;-82
2024/02/02 03:20:12;;;;;;;67.97;62.97;;;4.50;99.90;;;;;;12589098;28;20402;-81
2024/02/02 03:26:14;;;;;;;65.45;61.25;;;4.50;99.90;;;;;;12595346;28;20048;-79
2024/02/02 03:32:16;;;;;;;65.28;60.30;;;4.50;99.90;;;;;;12608746;28;20055;-77
2024/02/02 03:38:18;;;;;;;66.57;61.72;;;4.60;99.90;;;;;;12600775;28;20052;-78
2024/02/02 03:44:20;;;;;;;65.70;60.88;;;4.60;99.90;;;;;;12605015;28;20052;-79
2024/02/02 03:50:22;;;;;;;66.57;62.47;;;4.60;99.90;;;;;;12590406;28;20468;-79
2024/02/02 03:56:24;;;;;;;59.45;55.15;;;4.60;99.90;;;;;;12576595;28;20365;-79
2024/02/02 04:02:26;;;;;;;63.00;58.92;;;4.60;99.90;;;;;;12604029;28;20052;-79
2024/02/02 04:08:28;;;;;;;65.75;60.42;;;4.70;99.90;;;;;;12595376;28;20052;-79
2024/02/02 04:14:31;;;;;;;66.78;62.58;;;4.70;99.90;;;;;;12580471;28;20140;-79
2024/02/02 04:20:33;;;;;;;76.90;71.88;;;4.70;99.90;;;;;;12568007;28;20076;-79
2024/02/02 04:26:35;;;;;;;71.63;66.70;;;4.70;99.90;;;;;;12593306;28;20166;-79
2024/02/02 04:32:37;;;;;;;84.35;78.97;;;4.80;99.90;;;;;;12599755;28;20064;-79
2024/02/02 04:38:39;;;;;;;74.95;69.60;;;4.80;99.90;;;;;;12611819;28;20052;-78
2024/02/02 04:44:41;;;;;;;76.25;71.00;;;4.80;99.90;;;;;;12615909;28;20078;-80
2024/02/02 04:50:43;;;;;;;73.15;68.28;;;4.70;99.90;;;;;;12605819;28;20059;-81
2024/02/02 04:56:45;;;;;;;72.20;67.18;;;4.70;99.90;;;;;;12599313;28;20529;-80
2024/02/02 05:02:47;;;;;;;70.70;66.28;;;4.80;99.90;;;;;;12610648;28;20067;-81
2024/02/02 05:08:49;;;;;;;70.13;65.88;;;4.70;99.90;;;;;;12599950;28;20138;-81
2024/02/02 05:14:51;;;;;;;76.32;70.90;;;4.60;99.90;;;;;;12613097;28;20153;-81
2024/02/02 05:20:53;;;;;;;76.97;71.28;;;4.50;99.90;;;;;;12624484;28;20451;-80
2024/02/02 05:26:54;;;;;;;81.90;76.32;;;4.50;99.90;;;;;;12597233;28;20048;-83
2024/02/02 05:32:56;;;;;;;80.18;74.47;;;4.50;99.90;;;;;;12609215;28;20086;-81
2024/02/02 05:38:59;;;;;;;75.78;70.38;;;4.50;99.90;;;;;;12597287;28;20400;-82
2024/02/02 05:45:01;;;;;;;77.32;71.85;;;4.50;99.90;;;;;;12598386;28;20060;-81
2024/02/02 05:51:04;;;;;;;72.72;67.82;;;4.50;99.90;;;;;;12599475;28;20613;-83
2024/02/02 05:57:06;;;;;;;79.22;73.85;;;4.50;99.90;;;;;;12572910;28;20056;-79
2024/02/02 06:03:08;;;;;;;74.38;69.40;;;4.50;99.90;;;;;;12573445;28;20060;-79
2024/02/02 06:09:11;;;;;;;73.35;67.78;;;4.50;99.90;;;;;;12563162;28;20052;-79
2024/02/02 06:15:13;;;;;;;74.80;69.68;;;4.60;99.90;;;;;;12555192;28;20053;-79
2024/02/02 06:21:15;;;;;;;78.00;72.60;;;4.60;99.90;;;;;;12563991;28;20483;-79
2024/02/02 06:27:22;;;;;;;70.28;65.32;;;4.60;99.90;;;;;;12567107;28;20135;-78
2024/02/02 06:33:24;;;;;;;72.70;67.68;;;4.60;99.90;;;;;;12583909;28;20419;-79
2024/02/02 06:39:26;;;;;;;71.45;66.07;;;4.60;99.90;;;;;;12565128;28;20053;-79
2024/02/02 06:45:28;;;;;;;70.15;65.05;;;4.70;99.90;;;;;;12572327;28;20371;-79
2024/02/02 06:51:30;;;;;;;70.47;65.20;;;4.70;99.90;;;;;;12570216;28;20056;-79
2024/02/02 06:57:32;;;;;;;71.78;65.90;;;4.80;99.90;;;;;;12523840;28;20061;-80
2024/02/02 07:03:34;;;;;;;68.57;63.92;;;4.80;99.90;;;;;;12505939;28;20068;-79
2024/02/02 07:09:38;;;;;;;75.13;69.90;;;4.80;99.90;;;;;;12525942;28;20054;-81
2024/02/02 07:15:40;;;;;;;71.53;66.43;;;4.90;99.90;;;;;;12522037;28;20049;-81
2024/02/02 07:21:42;;;;;;;68.30;63.85;;;4.90;99.90;;;;;;12515476;28;20461;-82
2024/02/02 07:27:56;;;;;;;68.55;64.03;;;4.90;99.90;;;;;;12523622;28;20124;-81
2024/02/02 07:34:03;;;;;;;69.22;64.57;;;5.00;99.90;;;;;;12528519;28;20045;-81
2024/02/02 07:40:44;;;;;;;69.65;64.90;;;5.10;99.90;;;;;;12528138;28;20176;-80
2024/02/02 07:46:45;;;;;;;67.93;63.50;;;5.10;99.90;;;;;;12538475;28;20045;-80
2024/02/02 07:52:48;;;;;;;73.57;68.63;;;5.20;99.90;;;;;;12529016;28;20048;-80
2024/02/02 07:58:50;;;;;;;77.38;72.00;;;5.20;99.90;;;;;;12501582;28;20092;-81
2024/02/02 08:04:52;;;;;;;71.13;66.50;;;5.30;99.90;;;;;;12513990;28;20057;-82
2024/02/02 08:10:54;;;;;;;68.55;63.80;;;5.30;99.90;;;;;;12531172;28;20496;-84
2024/02/02 08:16:56;;;;;;;68.70;63.78;;;5.40;99.90;;;;;;12512217;28;20061;-81
2024/02/02 08:22:58;;;;;;;71.53;66.63;;;5.50;99.90;;;;;;12543291;28;20064;-81
2024/02/02 08:29:00;;;;;;;64.53;60.78;;;5.50;99.90;;;;;;12517648;28;20100;-81
2024/02/02 08:35:02;;;;;;;66.47;61.88;;;5.50;99.90;;;;;;12523266;28;20053;-82
2024/02/02 08:41:05;;;;;;;70.25;65.68;;;5.60;99.90;;;;;;12514705;28;20053;-81
2024/02/02 08:47:07;;;;;;;56.72;52.83;;;5.80;99.90;;;;;;12528939;28;20045;-82
2024/02/02 08:53:14;;;;;;;72.18;67.43;;;5.90;99.90;;;;;;12540383;28;20081;-82
2024/02/02 08:59:31;;;;;;;73.35;68.63;;;5.80;99.90;;;;;;12578742;28;20056;-81
2024/02/02 09:05:49;;;;;;;69.68;65.22;;;5.80;99.90;;;;;;12570992;28;20057;-81
2024/02/02 09:11:51;;;;;;;68.47;63.70;;;5.80;99.90;;;;;;12583146;28;20045;-82
2024/02/02 09:17:54;;;;;;;66.10;61.67;;;5.90;99.90;;;;;;12577217;28;20045;-82
2024/02/02 09:23:56;;;;;;;71.30;66.75;;;5.90;99.90;;;;;;12564960;28;20099;-81
2024/02/02 09:29:59;;;;;;;71.47;66.70;;;5.90;99.90;;;;;;12593075;28;20397;-81
2024/02/02 09:36:06;;;;;;;69.75;65.03;;;5.90;99.90;;;;;;12574865;28;20495;-81
2024/02/02 09:42:36;;;;;;;61.90;57.88;;;5.90;99.90;;;;;;12590124;28;20110;-80
2024/02/02 09:48:56;;;;;;;58.58;54.35;;;5.90;99.90;;;;;;12582277;28;20083;-82
2024/02/02 09:55:20;;;;;;;65.57;61.47;;;5.90;99.90;;;;;;12620734;28;20056;-82
2024/02/02 10:01:46;;;;;;;69.93;65.40;;;5.90;99.90;;;;;;12629789;28;20056;-82
2024/02/02 10:08:09;;;;;;;71.90;67.45;;;5.90;99.90;;;;;;12607510;28;20055;-80
2024/02/02 10:14:34;;;;;;;69.75;65.00;;;5.90;99.90;;;;;;12627053;28;20044;-84
2024/02/02 10:20:49;;;;;;;;;;;6.00;99.90;;;;;;12587341;28;20052;-82
2024/02/02 10:27:03;;;;;;;67.27;62.00;;;6.10;99.90;;;;;;12615645;28;20406;-82
2024/02/02 10:33:33;;;;;;;68.05;63.20;;;6.20;99.90;;;;;;12614110;28;20071;-83
2024/02/02 10:39:43;;;;;;;68.20;63.00;;;6.10;99.90;;;;;;12624357;28;20060;-80
2024/02/02 10:46:09;;;;;;;73.40;68.35;;;6.20;99.90;;;;;;12636739;28;20051;-78
2024/02/02 10:52:47;;;;;;;69.50;64.80;;;6.30;99.90;;;;;;12648793;28;20059;-79
2024/02/02 10:59:10;;;;;;;66.50;61.38;;;6.30;99.90;;;;;;12626380;28;20432;-79
2024/02/02 11:05:12;;;;;;;71.55;66.40;;;6.30;99.90;;;;;;12599168;28;20060;-80
2024/02/02 11:11:21;;;;;;;86.10;80.65;;;6.30;99.90;;;;;;12618329;28;20056;-81
2024/02/02 11:17:33;;;;;;;78.25;73.35;;;6.30;99.90;;;;;;12602281;28;20078;-79
2024/02/02 11:23:51;;;;;;;86.70;80.80;;;6.30;99.90;;;;;;12611407;28;20044;-78
2024/02/02 11:30:06;;;;;;;78.22;72.95;;;6.30;99.90;;;;;;12622537;28;20055;-79
2024/02/02 11:36:24;;;;;;;79.70;73.70;;;6.30;99.90;;;;;;12595071;28;20063;-77
2024/02/02 11:42:28;;;;;;;70.80;65.05;;;6.30;99.90;;;;;;12596597;28;20052;-80
2024/02/02 11:48:39;;;;;;;75.47;70.25;;;6.40;99.90;;;;;;12623864;28;20409;-80
2024/02/02 11:55:02;;;;;;;77.50;71.80;;;6.40;99.90;;;;;;12595065;28;20048;-80
2024/02/02 12:01:30;;;;;;;84.78;78.90;;;6.50;99.90;;;;;;12616787;28;20146;-78
2024/02/02 12:07:44;;;;;;;79.82;73.78;;;6.50;99.90;;;;;;12622329;28;20055;-79
2024/02/02 12:13:49;;;;;;;77.05;71.75;;;6.50;99.90;;;;;;12611393;28;20125;-79
2024/02/02 12:19:51;;;;;;;76.18;70.07;;;6.60;99.90;;;;;;12636556;28;20055;-79
2024/02/02 12:25:53;;;;;;;76.88;71.80;;;6.90;99.90;;;;;;12633932;28;20598;-80
2024/02/02 12:31:55;;;;;;;87.45;81.18;;;7.20;99.90;;;;;;12618467;28;20063;-79
2024/02/02 12:37:57;;;;;;;84.28;78.32;;;7.20;99.90;;;;;;12610958;28;20420;-80
2024/02/02 12:44:00;;;;;;;86.43;81.22;;;7.40;99.90;;;;;;12605991;28;20075;-79
2024/02/02 12:50:02;;;;;;;84.18;78.95;;;7.40;99.90;;;;;;12620414;28;20405;-80
2024/02/02 12:56:05;;;;;;;83.63;78.07;;;7.50;99.90;;;;;;12625046;28;20048;-83
2024/02/02 13:02:07;;;;;;;83.43;77.72;;;7.60;99.90;;;;;;12624123;28;20112;-83
2024/02/02 13:08:10;;;;;;;96.75;90.72;;;7.70;99.90;;;;;;12621786;28;20735;-83
2024/02/02 13:14:13;;;;;;;95.30;89.50;;;7.70;99.90;;;;;;12621880;28;20052;-83
2024/02/02 13:20:19;;;;;;;93.03;87.07;;;7.80;99.90;;;;;;12630099;28;20064;-82
2024/02/02 13:26:21;;;;;;;99.32;93.40;;;7.90;99.90;;;;;;12616733;28;20143;-82
2024/02/02 13:32:27;;;;;;;94.63;88.90;;;7.60;99.90;;;;;;12628508;28;20059;-82
2024/02/02 13:38:33;;;;;;;90.20;84.07;;;7.60;99.90;;;;;;12615008;28;20058;-85
2024/02/02 13:44:35;;;;;;;93.57;87.22;;;7.40;99.90;;;;;;12609126;28;20067;-82
2024/02/02 13:50:59;;;;;;;97.57;91.22;;;7.30;99.90;;;;;;12604628;28;20052;-84
2024/02/02 13:57:02;;;;;;;102.80;95.78;;;7.40;99.90;;;;;;12554441;28;20122;-84
2024/02/02 14:03:05;;;;;;;97.95;91.40;;;7.40;99.90;;;;;;12535233;28;20057;-84
2024/02/02 14:09:18;;;;;;;91.97;86.00;;;7.30;99.90;;;;;;12555082;28;20057;-84
2024/02/02 14:15:21;;;;;;;102.13;95.35;;;7.20;99.90;;;;;;12512859;28;20050;-84
2024/02/02 14:21:31;;;;;;;94.88;88.47;;;7.40;99.90;;;;;;12520733;28;20057;-85
2024/02/02 14:27:38;;;;;;;100.10;93.47;;;7.40;99.90;;;;;;12522906;28;20053;-83
2024/02/02 14:33:40;;;;;;;96.43;90.25;;;7.30;99.90;;;;;;12517619;28;20410;-86
2024/02/02 14:39:42;;;;;;;92.47;86.53;;;7.30;99.90;;;;;;12524215;28;20056;-84
2024/02/02 14:45:44;;;;;;;93.95;86.82;;;7.30;99.90;;;;;;12529155;28;20063;-85
2024/02/02 14:51:46;;;;;;;87.57;81.65;;;7.20;99.90;;;;;;12507762;28;20053;-84
2024/02/02 14:57:49;;;;;;;100.30;94.10;;;7.20;99.90;;;;;;12498967;28;20135;-85
2024/02/02 15:03:50;;;;;;;89.30;83.57;;;7.10;99.90;;;;;;12509781;28;20048;-85
2024/02/02 15:09:53;;;;;;;102.85;96.45;;;7.20;99.90;;;;;;12508087;28;20136;-84
2024/02/02 15:15:54;;;;;;;94.93;88.70;;;7.20;99.90;;;;;;12516347;28;20052;-87
2024/02/02 15:21:56;;;;;;;90.35;84.28;;;7.10;99.90;;;;;;12493528;28;20053;-86
2024/02/02 15:27:58;;;;;;;97.78;91.25;;;7.10;99.90;;;;;;12500447;28;20057;-84
2024/02/02 15:34:00;;;;;;;96.97;91.03;;;7.10;99.90;;;;;;12496662;28;20048;-86
2024/02/02 15:40:08;;;;;;;98.13;92.03;;;7.00;99.90;;;;;;12513990;28;20096;-86
2024/02/02 15:46:13;;;;;;;100.75;94.47;;;7.10;99.90;;;;;;12500048;28;20431;-86
2024/02/02 15:52:14;;;;;;;98.28;92.60;;;7.10;99.90;;;;;;12499823;28;20032;-82
2024/02/02 15:58:17;;;;;;;111.35;104.50;;;7.10;99.90;;;;;;12565382;28;20428;-85
2024/02/02 16:04:19;;;;;;;113.40;106.68;;;6.90;99.90;;;;;;12562495;28;20056;-84
2024/02/02 16:10:21;;;;;;;108.63;102.00;;;6.90;99.90;;;;;;12567219;28;20049;-85
2024/02/02 16:16:23;;;;;;;110.88;104.15;;;6.90;99.90;;;;;;12551939;28;20059;-85
2024/02/02 16:22:25;;;;;;;116.53;109.68;;;7.00;99.90;;;;;;12589794;28;20055;-86
2024/02/02 16:28:26;;;;;;;124.00;116.95;;;7.00;99.90;;;;;;12583211;28;20481;-78
2024/02/02 16:34:28;;;;;;;129.80;122.40;;;6.90;99.90;;;;;;12576178;28;20041;-79
2024/02/02 16:40:31;;;;;;;169.35;159.63;;;7.00;99.90;;;;;;12571615;28;20090;-80
2024/02/02 16:46:43;;;;;;;131.73;124.10;;;7.00;99.90;;;;;;12576517;28;20053;-80
2024/02/02 16:52:45;;;;;;;130.70;123.45;;;7.00;99.90;;;;;;12575962;28;20052;-79
2024/02/02 16:58:47;;;;;;;135.77;128.15;;;7.00;99.90;;;;;;12599225;28;20056;-79
2024/02/02 17:04:49;;;;;;;144.30;135.98;;;7.00;99.90;;;;;;12621186;28;20043;-79
2024/02/02 17:10:52;;;;;;;137.30;129.48;;;7.00;99.90;;;;;;12632848;28;20076;-78
2024/02/02 17:16:54;;;;;;;141.83;133.73;;;7.00;99.90;;;;;;12600353;28;20063;-78
2024/02/02 17:22:56;;;;;;;136.82;129.15;;;7.00;99.90;;;;;;12621038;28;20063;-78
2024/02/02 17:28:58;;;;;;;149.20;140.63;;;7.00;99.90;;;;;;12617228;28;20443;-79
2024/02/02 17:35:12;;;;;;;147.02;138.82;;;7.00;99.90;;;;;;12612372;28;20040;-78
2024/02/02 17:41:15;;;;;;;146.23;138.15;;;7.10;99.90;;;;;;12611142;28;20109;-79
2024/02/02 17:47:17;;;;;;;140.30;132.53;;;7.10;99.90;;;;;;12617558;28;20093;-80
2024/02/02 17:53:19;;;;;;;148.55;140.60;;;7.10;99.90;;;;;;12619990;28;20061;-79
2024/02/02 17:59:21;;;;;;;147.60;139.27;;;7.10;99.90;;;;;;12626886;28;20052;-80
2024/02/02 18:05:23;;;;;;;150.70;142.13;;;7.10;99.90;;;;;;12606210;28;20309;-79
2024/02/02 18:11:25;;;;;;;147.32;138.90;;;7.10;99.90;;;;;;12604814;28;20056;-79
2024/02/02 18:17:28;;;;;;;158.02;149.15;;;7.10;99.90;;;;;;12613343;28;20050;-81
2024/02/02 18:23:32;;;;;;;146.80;138.18;;;7.10;99.90;;;;;;12597281;28;20132;-80
2024/02/02 18:29:33;;;;;;;153.80;144.82;;;7.10;99.90;;;;;;12626518;28;20488;-81
2024/02/02 18:35:35;;;;;;;152.45;143.98;;;7.20;99.90;;;;;;12610709;28;20056;-79
2024/02/02 18:41:37;;;;;;;159.05;149.82;;;7.20;99.90;;;;;;12606672;28;20411;-81
2024/02/02 18:47:39;;;;;;;156.65;147.57;;;7.30;99.90;;;;;;12612758;28;20059;-80
2024/02/02 18:53:41;;;;;;;162.93;153.70;;;7.50;99.90;;;;;;12612638;28;20098;-79
2024/02/02 18:59:43;;;;;;;163.35;153.93;;;7.40;99.90;;;;;;12625104;28;20058;-78
2024/02/02 19:05:46;;;;;;;163.82;154.63;;;7.50;99.90;;;;;;12627222;28;20051;-78
2024/02/02 19:11:48;;;;;;;166.40;156.93;;;7.60;99.90;;;;;;12611169;28;20135;-79
2024/02/02 19:17:50;;;;;;;165.07;155.52;;;7.60;99.90;;;;;;12616929;28;20059;-80
2024/02/02 19:23:56;;;;;;;167.93;158.15;;;7.60;99.90;;;;;;12617121;28;20440;-80
2024/02/02 19:29:58;;;;;;;169.73;160.05;;;7.60;99.90;;;;;;12613970;28;20048;-80
2024/02/02 19:36:00;;;;;;;169.60;159.38;;;7.70;99.90;;;;;;12606420;28;20052;-79
2024/02/02 19:42:02;;;;;;;171.07;161.15;;;7.70;99.90;;;;;;12613240;28;20048;-78
2024/02/02 19:48:06;;;;;;;169.90;160.13;;;7.70;99.90;;;;;;12610542;28;20806;-78
2024/02/02 19:54:09;;;;;;;173.02;163.20;;;7.80;99.90;;;;;;12613623;28;20056;-78
2024/02/02 20:00:11;;;;;;;192.68;181.95;;;7.80;99.90;;;;;;12597377;28;20116;-83
2024/02/02 20:06:16;;;;;;;198.32;187.25;;;7.80;99.90;;;;;;12629629;28;20078;-85
2024/02/02 20:12:19;;;;;;;191.40;180.43;;;7.80;99.90;;;;;;12611450;28;20075;-77
2024/02/02 20:18:21;;;;;;;201.57;190.27;;;7.80;99.90;;;;;;12607607;28;20106;-78
2024/02/02 20:24:23;;;;;;;207.50;196.00;;;7.80;99.90;;;;;;12594399;28;20056;-79
2024/02/02 20:30:25;;;;;;;221.85;209.52;;;7.80;99.90;;;;;;12604030;28;20048;-79
2024/02/02 20:36:30;;;;;;;215.75;203.80;;;7.80;99.90;;;;;;12592391;28;20077;-78
2024/02/02 20:42:32;;;;;;;192.88;182.20;;;7.80;99.90;;;;;;12604483;28;20059;-79
2024/02/02 20:48:34;;;;;;;199.43;188.38;;;7.90;99.90;;;;;;12617547;28;20226;-78
2024/02/02 20:54:36;;;;;;;213.23;201.38;;;7.80;99.90;;;;;;12619826;28;20118;-80
2024/02/02 21:00:40;;;;;;;214.95;202.90;;;7.80;99.90;;;;;;12604955;28;20101;-77
2024/02/02 21:06:42;;;;;;;211.68;200.00;;;7.90;99.90;;;;;;12632909;28;20048;-80
2024/02/02 21:12:45;;;;;;;213.90;201.95;;;7.90;99.90;;;;;;12601427;28;20071;-78
2024/02/02 21:18:49;;;;;;;213.45;201.60;;;7.90;99.90;;;;;;12607752;28;20412;-79
2024/02/02 21:24:51;;;;;;;223.43;211.18;;;8.00;99.90;;;;;;12601961;28;20102;-79
2024/02/02 21:30:56;;;;;;;230.07;216.88;;;8.10;99.90;;;;;;12614089;28;20083;-78
2024/02/02 21:37:00;;;;;;;224.00;211.07;;;8.10;99.90;;;;;;12614557;28;20090;-81
2024/02/02 21:43:02;;;;;;;224.60;211.82;;;8.20;99.90;;;;;;12595550;28;20515;-78
2024/02/02 21:49:08;;;;;;;225.82;212.85;;;8.20;99.90;;;;;;12600760;28;20048;-78
2024/02/02 21:55:10;;;;;;;219.98;207.20;;;8.30;99.90;;;;;;12597819;28;20060;-81
2024/02/02 22:01:12;;;;;;;214.05;201.20;;;8.30;99.90;;;;;;12632787;28;20052;-78
2024/02/02 22:07:15;;;;;;;211.82;199.30;;;8.30;99.90;;;;;;12646931;28;20052;-79
2024/02/02 22:13:17;;;;;;;209.43;197.02;;;8.40;99.90;;;;;;12610694;28;20044;-83
2024/02/02 22:19:19;;;;;;;198.43;186.23;;;8.40;99.90;;;;;;12623919;28;20138;-77
2024/02/02 22:25:21;;;;;;;210.20;197.45;;;8.40;99.90;;;;;;12626269;28;20434;-78
2024/02/02 22:31:23;;;;;;;202.05;189.65;;;8.50;99.90;;;;;;12608420;28;20064;-82
2024/02/02 22:37:25;;;;;;;179.57;168.27;;;8.40;99.90;;;;;;12605586;28;20059;-78
2024/02/02 22:43:27;;;;;;;189.82;178.23;;;8.40;99.90;;;;;;12616743;28;20045;-85
2024/02/02 22:49:31;;;;;;;184.15;172.52;;;8.50;99.90;;;;;;12591404;28;20059;-84
2024/02/02 22:55:33;;;;;;;181.02;169.52;;;8.50;99.90;;;;;;12601711;28;20059;-84
2024/02/02 23:01:35;;;;;;;187.93;175.73;;;8.50;99.90;;;;;;12604981;28;20071;-84
2024/02/02 23:07:37;;;;;;;184.88;173.18;;;8.50;99.90;;;;;;12617254;28;20393;-84
2024/02/02 23:13:39;;;;;;;187.80;176.23;;;8.60;99.90;;;;;;12587741;28;20040;-84
2024/02/02 23:19:42;;;;;;;177.25;165.60;;;8.70;99.90;;;;;;12597775;28;20052;-85
2024/02/02 23:25:46;;;;;;;179.48;168.05;;;8.70;99.90;;;;;;12608190;28;20056;-84
2024/02/02 23:31:47;;;;;;;180.13;168.15;;;8.70;99.90;;;;;;12597660;28;20480;-84
2024/02/02 23:37:49;;;;;;;169.70;158.77;;;8.60;99.90;;;;;;12603515;28;20048;-85
2024/02/02 23:43:51;;;;;;;176.27;164.65;;;8.70;99.90;;;;;;12626386;28;20064;-83
2024/02/02 23:49:53;;;;;;;176.02;164.80;;;8.80;99.90;;;;;;12594144;28;20420;-86
2024/02/02 23:55:55;;;;;;;173.68;162.57;;;8.80;99.90;;;;;;12603208;28;20059;-84
